sensor_id;sensor_type;location;lat;lon;timestamp;P1;durP1;ratioP1;P2;durP2;ratioP2
71423;SDS011;59240;51.370;-0.486;2023-03-01T00:01:00;9.40;;;2.73;;
71423;SDS011;59240;51.370;-0.486;2023-03-01T00:03:27;6.30;;;2.30;;
71423;SDS011;59240;51.370;-0.486;2023-03-01T00:05:53;8.00;;;3.00;;
71423;SDS011;59240;51.370;-0.486;2023-03-01T00:08:20;10.10;;;3.15;;
71423;SDS011;59240;51.370;-0.486;2023-03-01T00:10:47;8.82;;;3.30;;
71423;SDS011;59240;51.370;-0.486;2023-03-01T00:13:13;9.37;;;3.20;;
71423;SDS011;59240;51.370;-0.486;2023-03-01T00:15:40;9.25;;;3.38;;
71423;SDS011;59240;51.370;-0.486;2023-03-01T00:18:07;11.88;;;3.40;;
71423;SDS011;59240;51.370;-0.486;2023-03-01T00:20:34;8.43;;;3.83;;
71423;SDS011;59240;51.370;-0.486;2023-03-01T00:23:01;10.38;;;3.80;;
71423;SDS011;59240;51.370;-0.486;2023-03-01T00:25:27;14.87;;;4.20;;
71423;SDS011;59240;51.370;-0.486;2023-03-01T00:27:54;10.02;;;4.10;;
71423;SDS011;59240;51.370;-0.486;2023-03-01T00:30:20;10.32;;;4.45;;
71423;SDS011;59240;51.370;-0.486;2023-03-01T00:32:47;10.52;;;4.00;;
71423;SDS011;59240;51.370;-0.486;2023-03-01T00:35:13;12.20;;;3.95;;
71423;SDS011;59240;51.370;-0.486;2023-03-01T00:37:40;10.70;;;4.67;;
71423;SDS011;59240;51.370;-0.486;2023-03-01T00:40:07;12.02;;;4.95;;
71423;SDS011;59240;51.370;-0.486;2023-03-01T00:42:36;11.63;;;5.28;;
71423;SDS011;59240;51.370;-0.486;2023-03-01T00:45:04;14.52;;;4.75;;
71423;SDS011;59240;51.370;-0.486;2023-03-01T00:47:31;11.40;;;4.80;;
71423;SDS011;59240;51.370;-0.486;2023-03-01T00:49:57;11.23;;;5.00;;
71423;SDS011;59240;51.370;-0.486;2023-03-01T00:52:24;14.15;;;5.18;;
71423;SDS011;59240;51.370;-0.486;2023-03-01T00:54:51;13.75;;;5.45;;
71423;SDS011;59240;51.370;-0.486;2023-03-01T00:57:18;11.65;;;5.05;;
71423;SDS011;59240;51.370;-0.486;2023-03-01T00:59:45;16.15;;;5.63;;
71423;SDS011;59240;51.370;-0.486;2023-03-01T01:02:11;13.20;;;5.30;;
71423;SDS011;59240;51.370;-0.486;2023-03-01T01:04:38;12.68;;;5.70;;
71423;SDS011;59240;51.370;-0.486;2023-03-01T01:07:04;12.60;;;5.13;;
71423;SDS011;59240;51.370;-0.486;2023-03-01T01:09:31;14.43;;;5.57;;
71423;SDS011;59240;51.370;-0.486;2023-03-01T01:11:58;13.00;;;5.57;;
71423;SDS011;59240;51.370;-0.486;2023-03-01T01:14:24;16.00;;;5.97;;
71423;SDS011;59240;51.370;-0.486;2023-03-01T01:16:51;13.38;;;5.78;;
71423;SDS011;59240;51.370;-0.486;2023-03-01T01:19:18;14.60;;;5.70;;
71423;SDS011;59240;51.370;-0.486;2023-03-01T01:21:44;11.75;;;5.30;;
71423;SDS011;59240;51.370;-0.486;2023-03-01T01:24:11;14.77;;;6.22;;
71423;SDS011;59240;51.370;-0.486;2023-03-01T01:26:38;16.00;;;5.73;;
71423;SDS011;59240;51.370;-0.486;2023-03-01T01:29:05;13.43;;;5.85;;
71423;SDS011;59240;51.370;-0.486;2023-03-01T01:31:33;17.40;;;6.30;;
71423;SDS011;59240;51.370;-0.486;2023-03-01T01:34:02;11.75;;;5.38;;
71423;SDS011;59240;51.370;-0.486;2023-03-01T01:36:31;16.65;;;6.32;;
71423;SDS011;59240;51.370;-0.486;2023-03-01T01:38:58;15.63;;;6.00;;
71423;SDS011;59240;51.370;-0.486;2023-03-01T01:41:26;16.38;;;6.65;;
71423;SDS011;59240;51.370;-0.486;2023-03-01T01:44:10;12.60;;;5.88;;
71423;SDS011;59240;51.370;-0.486;2023-03-01T01:46:56;16.02;;;6.57;;
71423;SDS011;59240;51.370;-0.486;2023-03-01T01:49:47;16.45;;;6.80;;
71423;SDS011;59240;51.370;-0.486;2023-03-01T01:52:22;13.53;;;6.10;;
71423;SDS011;59240;51.370;-0.486;2023-03-01T01:54:59;17.08;;;6.53;;
71423;SDS011;59240;51.370;-0.486;2023-03-01T01:57:35;12.98;;;6.00;;
71423;SDS011;59240;51.370;-0.486;2023-03-01T02:00:13;18.52;;;6.55;;
71423;SDS011;59240;51.370;-0.486;2023-03-01T02:02:40;15.15;;;6.05;;
71423;SDS011;59240;51.370;-0.486;2023-03-01T02:05:11;15.37;;;6.87;;
71423;SDS011;59240;51.370;-0.486;2023-03-01T02:07:45;17.73;;;6.93;;
71423;SDS011;59240;51.370;-0.486;2023-03-01T02:10:13;17.90;;;7.18;;
71423;SDS011;59240;51.370;-0.486;2023-03-01T02:12:41;14.05;;;7.10;;
71423;SDS011;59240;51.370;-0.486;2023-03-01T02:15:08;15.75;;;6.05;;
71423;SDS011;59240;51.370;-0.486;2023-03-01T02:17:35;15.73;;;6.20;;
71423;SDS011;59240;51.370;-0.486;2023-03-01T02:22:38;13.90;;;5.30;;
71423;SDS011;59240;51.370;-0.486;2023-03-01T02:25:26;11.80;;;4.40;;
71423;SDS011;59240;51.370;-0.486;2023-03-01T02:28:04;9.70;;;3.00;;
71423;SDS011;59240;51.370;-0.486;2023-03-01T02:30:37;8.47;;;2.07;;
71423;SDS011;59240;51.370;-0.486;2023-03-01T02:33:25;8.05;;;2.38;;
71423;SDS011;59240;51.370;-0.486;2023-03-01T02:35:53;8.02;;;1.80;;
71423;SDS011;59240;51.370;-0.486;2023-03-01T02:38:21;6.40;;;1.75;;
71423;SDS011;59240;51.370;-0.486;2023-03-01T02:40:50;6.20;;;1.90;;
71423;SDS011;59240;51.370;-0.486;2023-03-01T02:43:18;5.77;;;1.63;;
71423;SDS011;59240;51.370;-0.486;2023-03-01T02:45:49;6.57;;;1.48;;
71423;SDS011;59240;51.370;-0.486;2023-03-01T02:48:17;7.97;;;1.60;;
71423;SDS011;59240;51.370;-0.486;2023-03-01T02:53:42;5.05;;;1.38;;
71423;SDS011;59240;51.370;-0.486;2023-03-01T02:56:20;5.83;;;1.30;;
71423;SDS011;59240;51.370;-0.486;2023-03-01T02:58:47;5.95;;;1.33;;
71423;SDS011;59240;51.370;-0.486;2023-03-01T03:01:18;6.18;;;1.58;;
71423;SDS011;59240;51.370;-0.486;2023-03-01T03:03:46;6.00;;;1.30;;
71423;SDS011;59240;51.370;-0.486;2023-03-01T03:06:13;5.20;;;1.33;;
71423;SDS011;59240;51.370;-0.486;2023-03-01T03:08:40;5.23;;;1.17;;
71423;SDS011;59240;51.370;-0.486;2023-03-01T03:11:07;6.45;;;1.25;;
71423;SDS011;59240;51.370;-0.486;2023-03-01T03:13:33;4.68;;;1.20;;
71423;SDS011;59240;51.370;-0.486;2023-03-01T03:16:00;4.97;;;1.08;;
71423;SDS011;59240;51.370;-0.486;2023-03-01T03:18:28;6.70;;;1.20;;
71423;SDS011;59240;51.370;-0.486;2023-03-01T03:20:55;6.60;;;1.50;;
71423;SDS011;59240;51.370;-0.486;2023-03-01T03:23:22;5.13;;;1.52;;
71423;SDS011;59240;51.370;-0.486;2023-03-01T03:25:49;7.72;;;1.45;;
71423;SDS011;59240;51.370;-0.486;2023-03-01T03:28:16;4.25;;;1.00;;
71423;SDS011;59240;51.370;-0.486;2023-03-01T03:30:43;6.70;;;0.90;;
71423;SDS011;59240;51.370;-0.486;2023-03-01T03:33:10;4.77;;;0.97;;
71423;SDS011;59240;51.370;-0.486;2023-03-01T03:35:46;3.65;;;0.80;;
71423;SDS011;59240;51.370;-0.486;2023-03-01T03:38:15;4.60;;;1.00;;
71423;SDS011;59240;51.370;-0.486;2023-03-01T03:40:44;3.33;;;0.60;;
71423;SDS011;59240;51.370;-0.486;2023-03-01T03:43:13;4.65;;;0.85;;
71423;SDS011;59240;51.370;-0.486;2023-03-01T03:45:46;5.40;;;0.90;;
71423;SDS011;59240;51.370;-0.486;2023-03-01T03:48:14;4.47;;;0.70;;
71423;SDS011;59240;51.370;-0.486;2023-03-01T03:50:46;4.60;;;1.00;;
71423;SDS011;59240;51.370;-0.486;2023-03-01T03:53:15;4.63;;;0.90;;
71423;SDS011;59240;51.370;-0.486;2023-03-01T03:55:42;5.75;;;1.00;;
71423;SDS011;59240;51.370;-0.486;2023-03-01T03:58:10;5.07;;;0.80;;
71423;SDS011;59240;51.370;-0.486;2023-03-01T04:00:38;4.50;;;1.00;;
71423;SDS011;59240;51.370;-0.486;2023-03-01T04:03:09;4.18;;;1.00;;
71423;SDS011;59240;51.370;-0.486;2023-03-01T04:05:37;4.05;;;0.90;;
71423;SDS011;59240;51.370;-0.486;2023-03-01T04:08:05;6.80;;;1.10;;
71423;SDS011;59240;51.370;-0.486;2023-03-01T04:10:44;5.17;;;0.80;;
71423;SDS011;59240;51.370;-0.486;2023-03-01T04:13:13;5.60;;;1.00;;
71423;SDS011;59240;51.370;-0.486;2023-03-01T04:15:41;5.35;;;1.10;;
71423;SDS011;59240;51.370;-0.486;2023-03-01T04:18:11;4.75;;;0.85;;
71423;SDS011;59240;51.370;-0.486;2023-03-01T04:20:39;2.55;;;0.70;;
71423;SDS011;59240;51.370;-0.486;2023-03-01T04:23:10;3.97;;;0.80;;
71423;SDS011;59240;51.370;-0.486;2023-03-01T04:25:47;4.18;;;0.95;;
71423;SDS011;59240;51.370;-0.486;2023-03-01T04:28:25;5.13;;;0.95;;
71423;SDS011;59240;51.370;-0.486;2023-03-01T04:30:55;4.10;;;0.90;;
71423;SDS011;59240;51.370;-0.486;2023-03-01T04:33:23;4.20;;;0.88;;
71423;SDS011;59240;51.370;-0.486;2023-03-01T04:35:51;3.87;;;0.90;;
71423;SDS011;59240;51.370;-0.486;2023-03-01T04:38:19;4.95;;;0.85;;
71423;SDS011;59240;51.370;-0.486;2023-03-01T04:40:47;6.03;;;0.90;;
71423;SDS011;59240;51.370;-0.486;2023-03-01T04:43:14;4.70;;;0.80;;
71423;SDS011;59240;51.370;-0.486;2023-03-01T04:45:41;4.75;;;1.08;;
71423;SDS011;59240;51.370;-0.486;2023-03-01T04:48:08;5.23;;;1.10;;
71423;SDS011;59240;51.370;-0.486;2023-03-01T04:50:35;4.70;;;1.05;;
71423;SDS011;59240;51.370;-0.486;2023-03-01T04:53:02;5.22;;;1.70;;
71423;SDS011;59240;51.370;-0.486;2023-03-01T04:55:29;4.32;;;1.00;;
71423;SDS011;59240;51.370;-0.486;2023-03-01T04:57:56;4.47;;;1.00;;
71423;SDS011;59240;51.370;-0.486;2023-03-01T05:00:23;5.17;;;1.00;;
71423;SDS011;59240;51.370;-0.486;2023-03-01T05:02:50;4.25;;;0.77;;
71423;SDS011;59240;51.370;-0.486;2023-03-01T05:05:23;5.22;;;0.90;;
71423;SDS011;59240;51.370;-0.486;2023-03-01T05:08:05;4.15;;;0.80;;
71423;SDS011;59240;51.370;-0.486;2023-03-01T05:10:33;4.80;;;0.90;;
71423;SDS011;59240;51.370;-0.486;2023-03-01T05:13:02;4.87;;;0.80;;
71423;SDS011;59240;51.370;-0.486;2023-03-01T05:15:30;4.47;;;0.70;;
71423;SDS011;59240;51.370;-0.486;2023-03-01T05:17:58;5.20;;;1.15;;
71423;SDS011;59240;51.370;-0.486;2023-03-01T05:20:26;3.88;;;0.63;;
71423;SDS011;59240;51.370;-0.486;2023-03-01T05:22:57;4.55;;;0.60;;
71423;SDS011;59240;51.370;-0.486;2023-03-01T05:25:25;4.63;;;0.90;;
71423;SDS011;59240;51.370;-0.486;2023-03-01T05:27:53;4.70;;;0.73;;
71423;SDS011;59240;51.370;-0.486;2023-03-01T05:30:19;5.32;;;0.63;;
71423;SDS011;59240;51.370;-0.486;2023-03-01T05:32:47;3.38;;;0.57;;
71423;SDS011;59240;51.370;-0.486;2023-03-01T05:35:16;3.50;;;0.70;;
71423;SDS011;59240;51.370;-0.486;2023-03-01T05:37:45;3.40;;;0.60;;
71423;SDS011;59240;51.370;-0.486;2023-03-01T05:40:14;4.10;;;0.60;;
71423;SDS011;59240;51.370;-0.486;2023-03-01T05:42:44;3.95;;;0.80;;
71423;SDS011;59240;51.370;-0.486;2023-03-01T05:45:12;4.45;;;0.63;;
71423;SDS011;59240;51.370;-0.486;2023-03-01T05:47:42;4.80;;;0.60;;
71423;SDS011;59240;51.370;-0.486;2023-03-01T05:50:14;5.67;;;0.63;;
71423;SDS011;59240;51.370;-0.486;2023-03-01T05:52:47;4.82;;;0.73;;
71423;SDS011;59240;51.370;-0.486;2023-03-01T05:55:16;4.00;;;0.77;;
71423;SDS011;59240;51.370;-0.486;2023-03-01T05:57:43;4.90;;;0.57;;
71423;SDS011;59240;51.370;-0.486;2023-03-01T06:00:11;4.10;;;0.70;;
71423;SDS011;59240;51.370;-0.486;2023-03-01T06:02:40;3.30;;;0.70;;
71423;SDS011;59240;51.370;-0.486;2023-03-01T06:05:08;4.15;;;0.68;;
71423;SDS011;59240;51.370;-0.486;2023-03-01T06:07:36;3.97;;;0.88;;
71423;SDS011;59240;51.370;-0.486;2023-03-01T06:10:04;3.80;;;0.55;;
71423;SDS011;59240;51.370;-0.486;2023-03-01T06:12:32;3.55;;;0.65;;
71423;SDS011;59240;51.370;-0.486;2023-03-01T06:15:00;2.63;;;0.40;;
71423;SDS011;59240;51.370;-0.486;2023-03-01T06:17:31;5.88;;;0.77;;
71423;SDS011;59240;51.370;-0.486;2023-03-01T06:20:04;4.82;;;0.82;;
71423;SDS011;59240;51.370;-0.486;2023-03-01T06:22:42;4.55;;;0.70;;
71423;SDS011;59240;51.370;-0.486;2023-03-01T06:25:10;4.88;;;0.68;;
71423;SDS011;59240;51.370;-0.486;2023-03-01T06:27:38;3.23;;;0.63;;
71423;SDS011;59240;51.370;-0.486;2023-03-01T06:30:06;4.65;;;0.85;;
71423;SDS011;59240;51.370;-0.486;2023-03-01T06:32:34;4.32;;;0.70;;
71423;SDS011;59240;51.370;-0.486;2023-03-01T06:35:00;4.00;;;0.70;;
71423;SDS011;59240;51.370;-0.486;2023-03-01T06:37:27;6.20;;;1.48;;
71423;SDS011;59240;51.370;-0.486;2023-03-01T06:39:53;5.80;;;0.90;;
71423;SDS011;59240;51.370;-0.486;2023-03-01T06:42:20;3.85;;;0.60;;
71423;SDS011;59240;51.370;-0.486;2023-03-01T06:44:46;4.72;;;0.77;;
71423;SDS011;59240;51.370;-0.486;2023-03-01T06:47:13;6.18;;;0.95;;
71423;SDS011;59240;51.370;-0.486;2023-03-01T06:49:40;5.82;;;0.80;;
71423;SDS011;59240;51.370;-0.486;2023-03-01T06:52:07;5.07;;;0.80;;
71423;SDS011;59240;51.370;-0.486;2023-03-01T06:54:34;4.88;;;0.90;;
71423;SDS011;59240;51.370;-0.486;2023-03-01T06:57:00;5.32;;;0.95;;
71423;SDS011;59240;51.370;-0.486;2023-03-01T06:59:27;6.38;;;1.10;;
71423;SDS011;59240;51.370;-0.486;2023-03-01T07:01:53;6.03;;;0.80;;
71423;SDS011;59240;51.370;-0.486;2023-03-01T07:04:20;4.63;;;0.93;;
71423;SDS011;59240;51.370;-0.486;2023-03-01T07:06:46;6.03;;;0.98;;
71423;SDS011;59240;51.370;-0.486;2023-03-01T07:09:23;4.93;;;1.15;;
71423;SDS011;59240;51.370;-0.486;2023-03-01T07:11:56;4.45;;;0.90;;
71423;SDS011;59240;51.370;-0.486;2023-03-01T07:14:23;5.28;;;1.10;;
71423;SDS011;59240;51.370;-0.486;2023-03-01T07:16:53;5.60;;;0.77;;
71423;SDS011;59240;51.370;-0.486;2023-03-01T07:19:20;3.97;;;0.80;;
71423;SDS011;59240;51.370;-0.486;2023-03-01T07:21:47;5.18;;;0.95;;
71423;SDS011;59240;51.370;-0.486;2023-03-01T07:24:14;7.20;;;1.02;;
71423;SDS011;59240;51.370;-0.486;2023-03-01T07:26:41;7.25;;;0.85;;
71423;SDS011;59240;51.370;-0.486;2023-03-01T07:29:09;5.13;;;0.80;;
71423;SDS011;59240;51.370;-0.486;2023-03-01T07:31:36;5.32;;;0.80;;
71423;SDS011;59240;51.370;-0.486;2023-03-01T07:34:06;4.57;;;0.93;;
71423;SDS011;59240;51.370;-0.486;2023-03-01T07:36:33;5.18;;;0.82;;
71423;SDS011;59240;51.370;-0.486;2023-03-01T07:39:00;7.03;;;1.35;;
71423;SDS011;59240;51.370;-0.486;2023-03-01T07:41:29;6.23;;;0.87;;
71423;SDS011;59240;51.370;-0.486;2023-03-01T07:43:55;5.18;;;1.00;;
71423;SDS011;59240;51.370;-0.486;2023-03-01T07:46:22;3.83;;;0.80;;
71423;SDS011;59240;51.370;-0.486;2023-03-01T07:48:49;5.68;;;0.80;;
71423;SDS011;59240;51.370;-0.486;2023-03-01T07:51:18;6.13;;;0.98;;
71423;SDS011;59240;51.370;-0.486;2023-03-01T07:53:47;6.80;;;0.83;;
71423;SDS011;59240;51.370;-0.486;2023-03-01T07:56:15;5.03;;;0.70;;
71423;SDS011;59240;51.370;-0.486;2023-03-01T07:58:44;4.38;;;1.02;;
71423;SDS011;59240;51.370;-0.486;2023-03-01T08:01:17;5.35;;;1.00;;
71423;SDS011;59240;51.370;-0.486;2023-03-01T08:03:45;4.47;;;0.85;;
71423;SDS011;59240;51.370;-0.486;2023-03-01T08:06:13;5.33;;;0.90;;
71423;SDS011;59240;51.370;-0.486;2023-03-01T08:08:41;4.45;;;1.42;;
71423;SDS011;59240;51.370;-0.486;2023-03-01T08:11:09;5.40;;;1.40;;
71423;SDS011;59240;51.370;-0.486;2023-03-01T08:13:38;6.10;;;0.85;;
71423;SDS011;59240;51.370;-0.486;2023-03-01T08:16:11;5.05;;;0.98;;
71423;SDS011;59240;51.370;-0.486;2023-03-01T08:18:41;9.07;;;1.13;;
71423;SDS011;59240;51.370;-0.486;2023-03-01T08:21:10;5.60;;;1.42;;
71423;SDS011;59240;51.370;-0.486;2023-03-01T08:23:53;7.18;;;0.90;;
71423;SDS011;59240;51.370;-0.486;2023-03-01T08:26:23;5.45;;;1.00;;
71423;SDS011;59240;51.370;-0.486;2023-03-01T08:28:50;4.68;;;0.70;;
71423;SDS011;59240;51.370;-0.486;2023-03-01T08:31:21;4.00;;;0.70;;
71423;SDS011;59240;51.370;-0.486;2023-03-01T08:34:01;6.85;;;0.95;;
71423;SDS011;59240;51.370;-0.486;2023-03-01T08:36:33;4.75;;;0.95;;
71423;SDS011;59240;51.370;-0.486;2023-03-01T08:39:03;4.97;;;0.75;;
71423;SDS011;59240;51.370;-0.486;2023-03-01T08:41:30;5.82;;;1.08;;
71423;SDS011;59240;51.370;-0.486;2023-03-01T08:43:57;4.60;;;1.07;;
71423;SDS011;59240;51.370;-0.486;2023-03-01T08:46:27;5.72;;;0.88;;
71423;SDS011;59240;51.370;-0.486;2023-03-01T08:48:56;5.53;;;1.20;;
71423;SDS011;59240;51.370;-0.486;2023-03-01T08:51:23;10.98;;;0.82;;
71423;SDS011;59240;51.370;-0.486;2023-03-01T08:53:51;4.78;;;0.85;;
71423;SDS011;59240;51.370;-0.486;2023-03-01T08:56:18;7.97;;;1.10;;
71423;SDS011;59240;51.370;-0.486;2023-03-01T08:58:46;6.45;;;1.20;;
71423;SDS011;59240;51.370;-0.486;2023-03-01T09:01:15;6.70;;;0.93;;
71423;SDS011;59240;51.370;-0.486;2023-03-01T09:03:44;6.90;;;0.88;;
71423;SDS011;59240;51.370;-0.486;2023-03-01T09:06:12;7.55;;;1.90;;
71423;SDS011;59240;51.370;-0.486;2023-03-01T09:08:43;8.47;;;3.03;;
71423;SDS011;59240;51.370;-0.486;2023-03-01T09:11:18;7.32;;;2.13;;
71423;SDS011;59240;51.370;-0.486;2023-03-01T09:13:47;3.45;;;0.65;;
71423;SDS011;59240;51.370;-0.486;2023-03-01T09:16:18;7.22;;;1.13;;
71423;SDS011;59240;51.370;-0.486;2023-03-01T09:18:52;4.05;;;0.70;;
71423;SDS011;59240;51.370;-0.486;2023-03-01T09:21:20;4.33;;;0.83;;
71423;SDS011;59240;51.370;-0.486;2023-03-01T09:24:05;6.50;;;1.02;;
71423;SDS011;59240;51.370;-0.486;2023-03-01T09:26:32;6.00;;;1.00;;
71423;SDS011;59240;51.370;-0.486;2023-03-01T09:28:59;6.20;;;0.75;;
71423;SDS011;59240;51.370;-0.486;2023-03-01T09:31:26;4.07;;;0.70;;
71423;SDS011;59240;51.370;-0.486;2023-03-01T09:33:53;3.47;;;0.63;;
71423;SDS011;59240;51.370;-0.486;2023-03-01T09:36:22;4.55;;;0.57;;
71423;SDS011;59240;51.370;-0.486;2023-03-01T09:38:51;7.88;;;0.70;;
71423;SDS011;59240;51.370;-0.486;2023-03-01T09:47:09;7.03;;;0.50;;
71423;SDS011;59240;51.370;-0.486;2023-03-01T09:49:42;3.20;;;0.50;;
71423;SDS011;59240;51.370;-0.486;2023-03-01T09:55:05;2.95;;;0.68;;
71423;SDS011;59240;51.370;-0.486;2023-03-01T09:57:38;2.88;;;0.28;;
71423;SDS011;59240;51.370;-0.486;2023-03-01T10:00:14;3.83;;;0.50;;
71423;SDS011;59240;51.370;-0.486;2023-03-01T10:03:01;3.92;;;0.50;;
71423;SDS011;59240;51.370;-0.486;2023-03-01T10:05:41;2.97;;;0.55;;
71423;SDS011;59240;51.370;-0.486;2023-03-01T10:10:44;4.85;;;0.30;;
71423;SDS011;59240;51.370;-0.486;2023-03-01T10:14:01;2.40;;;0.30;;
71423;SDS011;59240;51.370;-0.486;2023-03-01T10:19:15;2.60;;;0.30;;
71423;SDS011;59240;51.370;-0.486;2023-03-01T10:22:20;4.40;;;0.20;;
71423;SDS011;59240;51.370;-0.486;2023-03-01T10:24:51;3.97;;;0.40;;
71423;SDS011;59240;51.370;-0.486;2023-03-01T10:30:13;2.65;;;0.20;;
71423;SDS011;59240;51.370;-0.486;2023-03-01T10:32:46;3.20;;;0.30;;
71423;SDS011;59240;51.370;-0.486;2023-03-01T10:35:22;3.35;;;0.30;;
71423;SDS011;59240;51.370;-0.486;2023-03-01T10:38:12;1.63;;;0.10;;
71423;SDS011;59240;51.370;-0.486;2023-03-01T10:43:27;2.50;;;0.30;;
71423;SDS011;59240;51.370;-0.486;2023-03-01T10:46:28;2.63;;;0.30;;
71423;SDS011;59240;51.370;-0.486;2023-03-01T10:49:17;2.63;;;0.30;;
71423;SDS011;59240;51.370;-0.486;2023-03-01T10:51:49;3.92;;;0.40;;
71423;SDS011;59240;51.370;-0.486;2023-03-01T10:54:28;3.13;;;0.23;;
71423;SDS011;59240;51.370;-0.486;2023-03-01T10:57:02;3.05;;;0.30;;
71423;SDS011;59240;51.370;-0.486;2023-03-01T10:59:34;2.25;;;0.30;;
71423;SDS011;59240;51.370;-0.486;2023-03-01T11:04:44;4.20;;;1.55;;
71423;SDS011;59240;51.370;-0.486;2023-03-01T11:07:23;3.10;;;0.50;;
71423;SDS011;59240;51.370;-0.486;2023-03-01T11:09:50;3.38;;;0.40;;
71423;SDS011;59240;51.370;-0.486;2023-03-01T11:12:17;3.67;;;0.40;;
71423;SDS011;59240;51.370;-0.486;2023-03-01T11:14:50;3.28;;;0.30;;
71423;SDS011;59240;51.370;-0.486;2023-03-01T11:17:31;3.17;;;0.40;;
71423;SDS011;59240;51.370;-0.486;2023-03-01T11:22:46;2.75;;;0.40;;
71423;SDS011;59240;51.370;-0.486;2023-03-01T11:25:17;3.83;;;0.60;;
71423;SDS011;59240;51.370;-0.486;2023-03-01T11:27:48;3.33;;;0.40;;
71423;SDS011;59240;51.370;-0.486;2023-03-01T11:30:24;2.50;;;0.43;;
71423;SDS011;59240;51.370;-0.486;2023-03-01T11:33:08;2.30;;;0.30;;
71423;SDS011;59240;51.370;-0.486;2023-03-01T11:35:45;2.88;;;0.40;;
71423;SDS011;59240;51.370;-0.486;2023-03-01T11:38:21;3.60;;;0.82;;
71423;SDS011;59240;51.370;-0.486;2023-03-01T11:49:17;4.20;;;0.50;;
71423;SDS011;59240;51.370;-0.486;2023-03-01T11:52:12;3.53;;;0.52;;
71423;SDS011;59240;51.370;-0.486;2023-03-01T11:54:46;6.43;;;0.88;;
71423;SDS011;59240;51.370;-0.486;2023-03-01T11:57:20;4.72;;;0.70;;
71423;SDS011;59240;51.370;-0.486;2023-03-01T12:22:25;6.47;;;0.50;;
71423;SDS011;59240;51.370;-0.486;2023-03-01T12:27:50;4.30;;;0.50;;
71423;SDS011;59240;51.370;-0.486;2023-03-01T12:36:54;3.72;;;0.43;;
71423;SDS011;59240;51.370;-0.486;2023-03-01T12:51:02;6.65;;;0.70;;
71423;SDS011;59240;51.370;-0.486;2023-03-01T12:53:36;4.80;;;0.50;;
71423;SDS011;59240;51.370;-0.486;2023-03-01T12:56:06;4.10;;;0.60;;
71423;SDS011;59240;51.370;-0.486;2023-03-01T12:58:59;4.95;;;0.60;;
71423;SDS011;59240;51.370;-0.486;2023-03-01T13:02:30;2.40;;;0.40;;
71423;SDS011;59240;51.370;-0.486;2023-03-01T13:07:25;4.32;;;0.80;;
71423;SDS011;59240;51.370;-0.486;2023-03-01T13:17:49;3.30;;;0.50;;
71423;SDS011;59240;51.370;-0.486;2023-03-01T13:20:23;5.60;;;0.75;;
71423;SDS011;59240;51.370;-0.486;2023-03-01T13:23:12;3.80;;;1.07;;
71423;SDS011;59240;51.370;-0.486;2023-03-01T13:33:44;3.45;;;0.80;;
71423;SDS011;59240;51.370;-0.486;2023-03-01T13:41:59;4.63;;;1.00;;
71423;SDS011;59240;51.370;-0.486;2023-03-01T13:46:53;5.20;;;0.65;;
71423;SDS011;59240;51.370;-0.486;2023-03-01T13:49:27;3.80;;;0.90;;
71423;SDS011;59240;51.370;-0.486;2023-03-01T13:52:32;7.68;;;0.80;;
71423;SDS011;59240;51.370;-0.486;2023-03-01T13:57:41;5.95;;;0.75;;
71423;SDS011;59240;51.370;-0.486;2023-03-01T14:03:04;4.03;;;0.60;;
71423;SDS011;59240;51.370;-0.486;2023-03-01T14:05:34;5.88;;;0.93;;
71423;SDS011;59240;51.370;-0.486;2023-03-01T14:08:13;3.85;;;0.77;;
71423;SDS011;59240;51.370;-0.486;2023-03-01T14:16:12;4.63;;;0.57;;
71423;SDS011;59240;51.370;-0.486;2023-03-01T14:21:39;5.47;;;0.75;;
71423;SDS011;59240;51.370;-0.486;2023-03-01T14:24:06;6.05;;;0.60;;
71423;SDS011;59240;51.370;-0.486;2023-03-01T14:26:44;4.78;;;0.80;;
71423;SDS011;59240;51.370;-0.486;2023-03-01T14:29:58;4.27;;;0.60;;
71423;SDS011;59240;51.370;-0.486;2023-03-01T14:32:08;3.10;;;0.47;;
71423;SDS011;59240;51.370;-0.486;2023-03-01T14:34:46;6.80;;;0.90;;
71423;SDS011;59240;51.370;-0.486;2023-03-01T14:37:21;3.20;;;0.52;;
71423;SDS011;59240;51.370;-0.486;2023-03-01T14:39:51;2.85;;;0.40;;
71423;SDS011;59240;51.370;-0.486;2023-03-01T14:42:18;4.33;;;0.50;;
71423;SDS011;59240;51.370;-0.486;2023-03-01T14:44:48;4.30;;;0.60;;
71423;SDS011;59240;51.370;-0.486;2023-03-01T14:47:32;4.90;;;0.82;;
71423;SDS011;59240;51.370;-0.486;2023-03-01T14:52:39;5.55;;;0.65;;
71423;SDS011;59240;51.370;-0.486;2023-03-01T14:55:19;4.80;;;0.70;;
71423;SDS011;59240;51.370;-0.486;2023-03-01T14:57:49;5.47;;;0.80;;
71423;SDS011;59240;51.370;-0.486;2023-03-01T15:00:18;7.80;;;0.50;;
71423;SDS011;59240;51.370;-0.486;2023-03-01T15:03:07;4.97;;;0.47;;
71423;SDS011;59240;51.370;-0.486;2023-03-01T15:05:40;6.50;;;0.70;;
71423;SDS011;59240;51.370;-0.486;2023-03-01T15:08:12;3.57;;;0.57;;
71423;SDS011;59240;51.370;-0.486;2023-03-01T15:10:55;4.97;;;0.85;;
71423;SDS011;59240;51.370;-0.486;2023-03-01T15:13:45;3.05;;;0.50;;
71423;SDS011;59240;51.370;-0.486;2023-03-01T15:16:27;4.38;;;0.50;;
71423;SDS011;59240;51.370;-0.486;2023-03-01T15:19:01;5.07;;;0.82;;
71423;SDS011;59240;51.370;-0.486;2023-03-01T15:21:38;2.20;;;0.40;;
71423;SDS011;59240;51.370;-0.486;2023-03-01T15:26:40;3.40;;;0.43;;
71423;SDS011;59240;51.370;-0.486;2023-03-01T15:29:15;3.72;;;0.50;;
71423;SDS011;59240;51.370;-0.486;2023-03-01T15:31:53;2.40;;;0.40;;
71423;SDS011;59240;51.370;-0.486;2023-03-01T15:34:36;3.47;;;0.57;;
71423;SDS011;59240;51.370;-0.486;2023-03-01T15:37:36;4.50;;;0.70;;
71423;SDS011;59240;51.370;-0.486;2023-03-01T15:40:19;6.75;;;0.90;;
71423;SDS011;59240;51.370;-0.486;2023-03-01T15:43:14;5.88;;;1.00;;
71423;SDS011;59240;51.370;-0.486;2023-03-01T15:46:04;5.35;;;0.95;;
71423;SDS011;59240;51.370;-0.486;2023-03-01T15:48:31;3.97;;;0.63;;
71423;SDS011;59240;51.370;-0.486;2023-03-01T15:50:58;4.53;;;0.85;;
71423;SDS011;59240;51.370;-0.486;2023-03-01T15:53:30;4.35;;;0.98;;
71423;SDS011;59240;51.370;-0.486;2023-03-01T15:55:57;7.68;;;0.82;;
71423;SDS011;59240;51.370;-0.486;2023-03-01T15:58:24;5.05;;;0.82;;
71423;SDS011;59240;51.370;-0.486;2023-03-01T16:00:52;3.40;;;0.73;;
71423;SDS011;59240;51.370;-0.486;2023-03-01T16:03:27;5.03;;;0.60;;
71423;SDS011;59240;51.370;-0.486;2023-03-01T16:05:59;3.25;;;0.70;;
71423;SDS011;59240;51.370;-0.486;2023-03-01T16:08:27;4.60;;;0.70;;
71423;SDS011;59240;51.370;-0.486;2023-03-01T16:10:53;4.63;;;1.02;;
71423;SDS011;59240;51.370;-0.486;2023-03-01T16:13:20;4.83;;;1.00;;
71423;SDS011;59240;51.370;-0.486;2023-03-01T16:15:47;4.80;;;0.80;;
71423;SDS011;59240;51.370;-0.486;2023-03-01T16:18:14;5.65;;;0.90;;
71423;SDS011;59240;51.370;-0.486;2023-03-01T16:20:40;5.97;;;1.10;;
71423;SDS011;59240;51.370;-0.486;2023-03-01T16:23:14;8.18;;;1.00;;
71423;SDS011;59240;51.370;-0.486;2023-03-01T16:25:41;5.47;;;0.63;;
71423;SDS011;59240;51.370;-0.486;2023-03-01T16:28:10;3.55;;;0.57;;
71423;SDS011;59240;51.370;-0.486;2023-03-01T16:30:44;5.30;;;0.60;;
71423;SDS011;59240;51.370;-0.486;2023-03-01T16:33:15;3.22;;;0.60;;
71423;SDS011;59240;51.370;-0.486;2023-03-01T16:36:00;3.42;;;0.50;;
71423;SDS011;59240;51.370;-0.486;2023-03-01T16:38:32;5.43;;;0.77;;
71423;SDS011;59240;51.370;-0.486;2023-03-01T16:41:00;4.13;;;0.65;;
71423;SDS011;59240;51.370;-0.486;2023-03-01T16:43:28;6.18;;;0.85;;
71423;SDS011;59240;51.370;-0.486;2023-03-01T16:45:56;3.42;;;0.50;;
71423;SDS011;59240;51.370;-0.486;2023-03-01T16:48:22;3.30;;;0.60;;
71423;SDS011;59240;51.370;-0.486;2023-03-01T16:50:56;7.50;;;0.80;;
71423;SDS011;59240;51.370;-0.486;2023-03-01T16:53:23;3.38;;;0.65;;
71423;SDS011;59240;51.370;-0.486;2023-03-01T16:55:56;4.63;;;0.65;;
71423;SDS011;59240;51.370;-0.486;2023-03-01T16:58:24;3.45;;;0.63;;
71423;SDS011;59240;51.370;-0.486;2023-03-01T17:00:51;2.55;;;0.50;;
71423;SDS011;59240;51.370;-0.486;2023-03-01T17:03:23;4.67;;;0.77;;
71423;SDS011;59240;51.370;-0.486;2023-03-01T17:05:52;3.58;;;0.50;;